Time;durP1;ratioP1;P1;durP2;ratioP2;P2;SDS_P1;SDS_P2;PMS_P1;PMS_P2;Temp;Humidity;BMP_temperature;BMP_pressure;BME280_temperature;BME280_humidity;BME280_pressure;Samples;Min_cycle;Max_cycle;Signal;HPM_P1;HPM_P2
2021/12/09 00:00:08;;;;;;;6.27;1.20;;;;;;;;;;5098922;28;20428;-80
2021/12/09 00:02:34;;;;;;;2.07;1.10;;;;;;;;;;5100313;28;20767;-79
2021/12/09 00:05:00;;;;;;;1.70;1.17;;;;;;;;;;5100738;28;20496;-80
2021/12/09 00:07:27;;;;;;;1.20;1.00;;;;;;;;;;5100641;28;20421;-79
2021/12/09 00:09:53;;;;;;;1.57;1.10;;;;;;;;;;5103963;28;20850;-80
2021/12/09 00:12:22;;;;;;;1.43;1.00;;;;;;;;;;5104422;28;20402;-80
2021/12/09 00:14:48;;;;;;;1.20;0.90;;;;;;;;;;5102017;28;20462;-81
2021/12/09 00:17:14;;;;;;;1.93;1.07;;;;;;;;;;5080384;28;20466;-80
2021/12/09 00:19:41;;;;;;;3.50;0.90;;;;;;;;;;5098898;28;20421;-80
2021/12/09 00:22:07;;;;;;;3.40;1.17;;;;;;;;;;5080207;28;20399;-80
2021/12/09 00:24:35;;;;;;;2.10;1.17;;;;;;;;;;5098075;28;20401;-80
2021/12/09 00:27:01;;;;;;;1.60;0.90;;;;;;;;;;5101793;28;20406;-80
2021/12/09 00:29:27;;;;;;;5.43;1.20;;;;;;;;;;5103624;28;20430;-80
2021/12/09 00:31:53;;;;;;;2.23;1.30;;;;;;;;;;5104157;28;20405;-79
2021/12/09 00:34:27;;;;;;;2.00;1.00;;;;;;;;;;5100604;28;20410;-80
2021/12/09 00:37:00;;;;;;;14.73;2.00;;;;;;;;;;5095226;28;20428;-81
2021/12/09 00:39:26;;;;;;;3.20;0.90;;;;;;;;;;5097112;28;20663;-82
2021/12/09 00:41:52;;;;;;;1.10;0.70;;;;;;;;;;5098331;28;20402;-81
2021/12/09 00:44:18;;;;;;;2.77;1.07;;;;;;;;;;5079311;28;20432;-80
2021/12/09 00:46:44;;;;;;;2.70;0.90;;;;;;;;;;5097150;28;20432;-80
2021/12/09 00:49:10;;;;;;;1.43;0.80;;;;;;;;;;5096303;28;20438;-80
2021/12/09 00:51:36;;;;;;;5.43;1.00;;;;;;;;;;5078594;28;20414;-80
2021/12/09 00:54:03;;;;;;;3.10;0.90;;;;;;;;;;5096158;28;20398;-80
2021/12/09 00:56:30;;;;;;;18.40;1.47;;;;;;;;;;5096943;28;20996;-81
2021/12/09 00:58:56;;;;;;;1.93;1.00;;;;;;;;;;5097303;28;20793;-80
2021/12/09 01:01:22;;;;;;;1.70;0.70;;;;;;;;;;5095710;28;20405;-80
2021/12/09 01:03:48;;;;;;;1.40;0.77;;;;;;;;;;5077928;28;21026;-80
2021/12/09 01:06:14;;;;;;;1.67;0.80;;;;;;;;;;5078424;28;20417;-80
2021/12/09 01:08:42;;;;;;;1.40;0.77;;;;;;;;;;5077495;28;20445;-80
2021/12/09 01:11:09;;;;;;;8.60;1.10;;;;;;;;;;5077964;28;20504;-80
2021/12/09 01:13:35;;;;;;;1.80;0.87;;;;;;;;;;5096533;28;20402;-80
2021/12/09 01:16:01;;;;;;;2.17;0.60;;;;;;;;;;5077758;28;20473;-80
2021/12/09 01:18:27;;;;;;;1.30;0.80;;;;;;;;;;5079722;28;20406;-81
2021/12/09 01:20:53;;;;;;;1.20;0.73;;;;;;;;;;5078004;28;20409;-80
2021/12/09 01:23:19;;;;;;;1.50;0.87;;;;;;;;;;5079180;28;20398;-80
2021/12/09 01:25:47;;;;;;;1.53;0.90;;;;;;;;;;5097378;28;20414;-80
2021/12/09 01:28:21;;;;;;;1.77;0.90;;;;;;;;;;5078636;28;20410;-81
2021/12/09 01:30:49;;;;;;;1.17;0.77;;;;;;;;;;5077960;28;20401;-81
2021/12/09 01:33:15;;;;;;;1.20;0.80;;;;;;;;;;5078500;28;20469;-80
2021/12/09 01:35:47;;;;;;;1.10;0.67;;;;;;;;;;5096514;28;20460;-80
2021/12/09 01:38:15;;;;;;;1.17;0.73;;;;;;;;;;5096950;28;20869;-80
2021/12/09 01:40:41;;;;;;;1.37;0.90;;;;;;;;;;5097489;28;20425;-80
2021/12/09 01:43:07;;;;;;;1.20;0.70;;;;;;;;;;5098005;28;20394;-80
2021/12/09 01:45:34;;;;;;;1.60;0.93;;;;;;;;;;5097365;28;20493;-80
2021/12/09 01:48:00;;;;;;;1.20;0.80;;;;;;;;;;5097648;28;20408;-80
2021/12/09 01:50:27;;;;;;;1.97;0.90;;;;;;;;;;5078345;28;20762;-80
2021/12/09 01:52:53;;;;;;;1.73;0.80;;;;;;;;;;5078852;28;20564;-80
2021/12/09 01:55:19;;;;;;;1.03;0.70;;;;;;;;;;5097763;28;20874;-80
2021/12/09 01:57:50;;;;;;;1.10;0.70;;;;;;;;;;5078719;28;20406;-80
2021/12/09 02:00:18;;;;;;;1.13;0.77;;;;;;;;;;5078178;28;20457;-80
2021/12/09 02:02:44;;;;;;;1.20;0.70;;;;;;;;;;5097210;28;20433;-80
2021/12/09 02:05:12;;;;;;;1.70;1.00;;;;;;;;;;5077751;28;20463;-81
2021/12/09 02:07:38;;;;;;;1.33;0.80;;;;;;;;;;5096413;28;20412;-80
2021/12/09 02:10:05;;;;;;;1.20;0.70;;;;;;;;;;5077470;28;20984;-80
2021/12/09 02:12:31;;;;;;;1.27;0.80;;;;;;;;;;5095884;28;20402;-80
2021/12/09 02:15:00;;;;;;;1.50;0.80;;;;;;;;;;5096095;28;20410;-80
2021/12/09 02:17:29;;;;;;;1.20;0.80;;;;;;;;;;5096758;28;20461;-80
2021/12/09 02:19:59;;;;;;;1.40;0.80;;;;;;;;;;5078505;28;20461;-81
2021/12/09 02:22:26;;;;;;;1.27;0.83;;;;;;;;;;5096663;28;20401;-80
2021/12/09 02:24:53;;;;;;;1.40;0.83;;;;;;;;;;5077099;28;20406;-80
2021/12/09 02:27:19;;;;;;;1.20;0.90;;;;;;;;;;5076755;28;20420;-80
2021/12/09 02:29:46;;;;;;;2.00;1.10;;;;;;;;;;5076698;28;20794;-80
2021/12/09 02:32:12;;;;;;;1.60;1.00;;;;;;;;;;5077409;28;20498;-80
2021/12/09 02:34:38;;;;;;;1.57;0.70;;;;;;;;;;5095662;28;20429;-80
2021/12/09 02:37:04;;;;;;;1.03;0.63;;;;;;;;;;5077053;28;20464;-81
2021/12/09 02:39:30;;;;;;;1.20;0.73;;;;;;;;;;5095581;28;20909;-80
2021/12/09 02:41:57;;;;;;;1.63;0.87;;;;;;;;;;5095295;28;20398;-80
2021/12/09 02:44:24;;;;;;;1.47;0.70;;;;;;;;;;5077964;28;20492;-80
2021/12/09 02:46:51;;;;;;;1.20;0.73;;;;;;;;;;5077093;28;20429;-80
2021/12/09 02:49:18;;;;;;;1.40;0.83;;;;;;;;;;5095135;28;20425;-80
2021/12/09 02:51:45;;;;;;;1.53;0.80;;;;;;;;;;5095729;28;20459;-80
2021/12/09 02:54:12;;;;;;;1.40;0.83;;;;;;;;;;5076515;28;20422;-80
2021/12/09 02:56:39;;;;;;;1.40;0.90;;;;;;;;;;5077297;28;20454;-80
2021/12/09 02:59:06;;;;;;;1.07;0.67;;;;;;;;;;5077664;28;20432;-80
2021/12/09 03:01:34;;;;;;;1.50;0.90;;;;;;;;;;5077398;28;20430;-80
2021/12/09 03:04:01;;;;;;;2.10;0.93;;;;;;;;;;5095297;28;20464;-80
2021/12/09 03:06:32;;;;;;;1.20;0.70;;;;;;;;;;5095228;28;20441;-79
2021/12/09 03:09:01;;;;;;;1.53;0.80;;;;;;;;;;5095439;28;20480;-80
2021/12/09 03:11:27;;;;;;;1.30;0.80;;;;;;;;;;5077320;28;20785;-80
2021/12/09 03:13:53;;;;;;;2.00;1.00;;;;;;;;;;5077048;28;20782;-80
2021/12/09 03:16:22;;;;;;;1.70;1.13;;;;;;;;;;5076826;28;20461;-80
2021/12/09 03:18:49;;;;;;;1.63;0.93;;;;;;;;;;5098811;28;20471;-80
2021/12/09 03:21:35;;;;;;;1.60;1.00;;;;;;;;;;5098101;28;20973;-80
2021/12/09 03:24:02;;;;;;;1.70;1.00;;;;;;;;;;5098942;28;20881;-80
2021/12/09 03:26:29;;;;;;;1.40;0.97;;;;;;;;;;5080494;28;20409;-80
2021/12/09 03:28:57;;;;;;;1.60;1.10;;;;;;;;;;5098376;28;20422;-81
2021/12/09 03:31:23;;;;;;;1.70;0.90;;;;;;;;;;5079896;28;20500;-81
2021/12/09 03:33:49;;;;;;;1.50;1.03;;;;;;;;;;5080034;28;20419;-81
2021/12/09 03:36:15;;;;;;;2.03;1.10;;;;;;;;;;5097675;28;20460;-81
2021/12/09 03:38:42;;;;;;;1.40;1.00;;;;;;;;;;5079593;28;20421;-81
2021/12/09 03:41:08;;;;;;;1.60;1.17;;;;;;;;;;5097632;28;20402;-80
2021/12/09 03:43:34;;;;;;;1.47;1.00;;;;;;;;;;5080107;28;20477;-80
2021/12/09 03:46:01;;;;;;;1.83;1.00;;;;;;;;;;5080324;28;20823;-81
2021/12/09 03:48:28;;;;;;;1.77;1.00;;;;;;;;;;5080277;28;20416;-80
2021/12/09 03:50:56;;;;;;;1.30;0.80;;;;;;;;;;5096820;28;20429;-80
2021/12/09 03:53:22;;;;;;;1.77;0.87;;;;;;;;;;5097747;28;20927;-81
2021/12/09 03:55:48;;;;;;;1.20;0.80;;;;;;;;;;5096317;28;20538;-80
2021/12/09 03:58:15;;;;;;;1.83;1.17;;;;;;;;;;5095710;28;20998;-81
2021/12/09 04:00:41;;;;;;;1.60;0.90;;;;;;;;;;5078927;28;20912;-80
2021/12/09 04:03:07;;;;;;;1.57;0.80;;;;;;;;;;5079487;28;20418;-81
2021/12/09 04:05:34;;;;;;;1.80;1.20;;;;;;;;;;5097417;28;20398;-80
2021/12/09 04:08:00;;;;;;;1.43;0.90;;;;;;;;;;5098362;28;20816;-80
2021/12/09 04:10:26;;;;;;;2.47;1.27;;;;;;;;;;5079421;28;20442;-80
2021/12/09 04:12:52;;;;;;;1.40;0.90;;;;;;;;;;5098329;28;20402;-80
2021/12/09 04:15:18;;;;;;;1.73;0.93;;;;;;;;;;5097521;28;20398;-80
2021/12/09 04:17:44;;;;;;;1.70;0.90;;;;;;;;;;5096590;28;20453;-81
2021/12/09 04:20:11;;;;;;;1.30;0.90;;;;;;;;;;5096113;28;20424;-81
2021/12/09 04:22:37;;;;;;;1.20;0.80;;;;;;;;;;5078681;28;20897;-81
2021/12/09 04:25:04;;;;;;;1.33;0.90;;;;;;;;;;5097050;28;20414;-81
2021/12/09 04:27:30;;;;;;;3.03;1.00;;;;;;;;;;5078493;28;20432;-81
2021/12/09 04:29:56;;;;;;;1.50;0.83;;;;;;;;;;5076562;28;20430;-80
2021/12/09 04:32:22;;;;;;;1.63;0.90;;;;;;;;;;5095848;28;20410;-81
2021/12/09 04:34:53;;;;;;;1.70;1.00;;;;;;;;;;5096471;28;20421;-81
2021/12/09 04:37:19;;;;;;;1.63;1.00;;;;;;;;;;5077796;28;20548;-80
2021/12/09 04:39:45;;;;;;;1.50;0.90;;;;;;;;;;5097185;28;20440;-81
2021/12/09 04:42:11;;;;;;;1.50;0.90;;;;;;;;;;5081404;28;20406;-81
2021/12/09 04:44:37;;;;;;;1.10;0.80;;;;;;;;;;5081416;28;20416;-81
2021/12/09 04:47:04;;;;;;;1.30;0.90;;;;;;;;;;5102459;28;20477;-81
2021/12/09 04:49:30;;;;;;;1.67;1.00;;;;;;;;;;5102525;28;20433;-81
2021/12/09 04:51:58;;;;;;;1.53;1.00;;;;;;;;;;5096047;28;20844;-81
2021/12/09 04:54:24;;;;;;;1.80;1.10;;;;;;;;;;5078115;28;20781;-81
2021/12/09 04:56:51;;;;;;;2.17;1.07;;;;;;;;;;5095410;28;20461;-81
2021/12/09 04:59:17;;;;;;;1.60;1.00;;;;;;;;;;5077299;28;20429;-80
2021/12/09 05:01:48;;;;;;;1.30;1.00;;;;;;;;;;5096428;28;20406;-80
2021/12/09 05:04:14;;;;;;;1.10;0.70;;;;;;;;;;5095699;28;20750;-80
2021/12/09 05:06:40;;;;;;;1.63;0.93;;;;;;;;;;5077451;28;20425;-81
2021/12/09 05:09:11;;;;;;;1.20;0.90;;;;;;;;;;5076375;28;20949;-81
2021/12/09 05:14:04;;;;;;;2.17;1.20;;;;;;;;;;5095085;28;20410;-81
2021/12/09 05:16:30;;;;;;;1.70;1.20;;;;;;;;;;5096644;28;20870;-81
2021/12/09 05:18:59;;;;;;;1.40;1.00;;;;;;;;;;5096346;28;20495;-80
2021/12/09 05:21:28;;;;;;;1.30;0.90;;;;;;;;;;5077860;28;20837;-80
2021/12/09 05:23:55;;;;;;;4.80;1.17;;;;;;;;;;5096367;28;20402;-80
2021/12/09 05:26:25;;;;;;;5.23;0.90;;;;;;;;;;5096423;28;20402;-80
2021/12/09 05:28:55;;;;;;;4.70;0.90;;;;;;;;;;5097072;28;20430;-80
2021/12/09 05:34:07;;;;;;;1.90;0.90;;;;;;;;;;5102079;28;20409;-79
2021/12/09 05:36:34;;;;;;;2.37;1.00;;;;;;;;;;5103091;28;20460;-79
2021/12/09 05:39:00;;;;;;;1.23;0.80;;;;;;;;;;5103223;28;20984;-80
2021/12/09 05:41:26;;;;;;;1.03;0.70;;;;;;;;;;5078417;28;20418;-80
2021/12/09 05:43:52;;;;;;;1.13;0.60;;;;;;;;;;5097666;28;20417;-79
2021/12/09 05:46:22;;;;;;;2.33;0.70;;;;;;;;;;5080691;28;20422;-79
2021/12/09 05:48:48;;;;;;;1.17;0.70;;;;;;;;;;5099078;28;20465;-79
2021/12/09 05:51:14;;;;;;;1.73;0.77;;;;;;;;;;5102532;28;20455;-79
2021/12/09 05:53:40;;;;;;;2.30;0.87;;;;;;;;;;5101058;28;20406;-77
2021/12/09 05:56:06;;;;;;;1.33;0.77;;;;;;;;;;5101855;28;20484;-79
2021/12/09 05:58:32;;;;;;;1.93;0.90;;;;;;;;;;5100143;28;20430;-78
2021/12/09 06:00:58;;;;;;;1.67;0.70;;;;;;;;;;5092078;28;20413;-78
2021/12/09 06:03:24;;;;;;;2.47;0.80;;;;;;;;;;5092464;28;20430;-78
2021/12/09 06:05:51;;;;;;;1.83;0.80;;;;;;;;;;5092418;28;20863;-78
2021/12/09 06:08:18;;;;;;;1.50;0.90;;;;;;;;;;5092015;28;20827;-77
2021/12/09 06:10:44;;;;;;;1.50;0.80;;;;;;;;;;5090466;28;20434;-77
2021/12/09 06:13:10;;;;;;;3.03;1.00;;;;;;;;;;5091426;28;20417;-78
2021/12/09 06:15:36;;;;;;;5.33;1.17;;;;;;;;;;5073405;28;20513;-78
2021/12/09 06:18:02;;;;;;;2.47;1.03;;;;;;;;;;5088590;28;20513;-78
2021/12/09 06:20:28;;;;;;;1.90;1.10;;;;;;;;;;5062508;28;20434;-78
2021/12/09 06:22:54;;;;;;;4.60;1.20;;;;;;;;;;5071797;28;20410;-79
2021/12/09 06:25:20;;;;;;;2.10;0.77;;;;;;;;;;5082532;28;20411;-80
2021/12/09 06:27:51;;;;;;;4.40;1.40;;;;;;;;;;5079723;28;20407;-80
2021/12/09 06:30:18;;;;;;;3.10;1.17;;;;;;;;;;5071235;28;20822;-79
2021/12/09 06:32:44;;;;;;;2.53;1.13;;;;;;;;;;5077298;28;20477;-80
2021/12/09 06:35:10;;;;;;;3.30;1.00;;;;;;;;;;5096969;28;20827;-80
2021/12/09 06:37:39;;;;;;;3.40;1.10;;;;;;;;;;5077173;28;20457;-79
2021/12/09 06:40:07;;;;;;;3.40;1.07;;;;;;;;;;5075928;28;20469;-79
2021/12/09 06:42:33;;;;;;;2.17;1.00;;;;;;;;;;5097067;28;20398;-80
2021/12/09 06:44:59;;;;;;;5.27;1.33;;;;;;;;;;5080021;28;20417;-80
2021/12/09 06:47:25;;;;;;;1.70;1.00;;;;;;;;;;5078791;28;20416;-80
2021/12/09 06:49:51;;;;;;;6.20;1.30;;;;;;;;;;5096679;28;20490;-79
2021/12/09 06:52:18;;;;;;;11.87;1.10;;;;;;;;;;5095933;28;20410;-79
2021/12/09 06:54:45;;;;;;;2.03;0.93;;;;;;;;;;5098176;28;20406;-80
2021/12/09 06:57:11;;;;;;;3.83;1.20;;;;;;;;;;5098296;28;20453;-80
2021/12/09 06:59:37;;;;;;;4.90;2.10;;;;;;;;;;5097929;28;20425;-80
2021/12/09 07:02:03;;;;;;;8.30;1.93;;;;;;;;;;5098047;28;20405;-80
2021/12/09 07:04:29;;;;;;;7.37;4.30;;;;;;;;;;5079776;28;20467;-80
2021/12/09 07:06:55;;;;;;;7.00;2.40;;;;;;;;;;5079107;28;20413;-80
2021/12/09 07:09:27;;;;;;;8.33;2.80;;;;;;;;;;5096803;28;21007;-79
2021/12/09 07:11:53;;;;;;;2.43;1.30;;;;;;;;;;5097473;28;20451;-79
2021/12/09 07:14:19;;;;;;;7.13;1.80;;;;;;;;;;5098890;28;20405;-80
2021/12/09 07:16:45;;;;;;;4.33;2.03;;;;;;;;;;5077944;28;20474;-79
2021/12/09 07:19:12;;;;;;;12.40;2.20;;;;;;;;;;5079907;28;20437;-79
2021/12/09 07:21:41;;;;;;;4.63;1.97;;;;;;;;;;5098071;28;20420;-79
2021/12/09 07:24:07;;;;;;;4.13;1.57;;;;;;;;;;5098766;28;20401;-80
2021/12/09 07:26:33;;;;;;;7.80;2.10;;;;;;;;;;5083149;28;20417;-79
2021/12/09 07:28:59;;;;;;;5.27;1.60;;;;;;;;;;5096131;28;20785;-79
2021/12/09 07:31:26;;;;;;;12.67;2.20;;;;;;;;;;5094398;28;20410;-78
2021/12/09 07:33:52;;;;;;;4.20;1.87;;;;;;;;;;5100841;28;20406;-79
2021/12/09 07:36:18;;;;;;;5.40;1.50;;;;;;;;;;5100602;28;20464;-79
2021/12/09 07:38:46;;;;;;;5.10;1.87;;;;;;;;;;5101864;28;20418;-79
2021/12/09 07:41:13;;;;;;;6.80;1.70;;;;;;;;;;5084313;28;20485;-79
2021/12/09 07:43:39;;;;;;;8.40;2.17;;;;;;;;;;5080309;28;20503;-79
2021/12/09 07:46:05;;;;;;;7.13;1.57;;;;;;;;;;5062286;28;20403;-79
2021/12/09 07:48:31;;;;;;;2.63;1.67;;;;;;;;;;5078299;28;20422;-79
2021/12/09 07:50:57;;;;;;;8.70;2.03;;;;;;;;;;5079187;28;20406;-79
2021/12/09 07:53:24;;;;;;;4.67;1.50;;;;;;;;;;5062401;28;20509;-79
2021/12/09 07:55:51;;;;;;;4.33;1.40;;;;;;;;;;5062595;28;20415;-79
2021/12/09 07:58:17;;;;;;;5.30;1.83;;;;;;;;;;5061623;28;20410;-79
2021/12/09 08:00:44;;;;;;;4.40;1.60;;;;;;;;;;5060219;28;20407;-78
2021/12/09 08:03:10;;;;;;;1.93;1.27;;;;;;;;;;5083682;28;20403;-79
2021/12/09 08:05:47;;;;;;;4.10;1.70;;;;;;;;;;5071916;28;20499;-79
2021/12/09 08:08:14;;;;;;;5.70;1.77;;;;;;;;;;5082373;28;20464;-80
2021/12/09 08:10:40;;;;;;;4.77;2.07;;;;;;;;;;5059837;28;20436;-78
2021/12/09 08:13:09;;;;;;;5.83;1.40;;;;;;;;;;5076579;28;20398;-78
2021/12/09 08:15:45;;;;;;;2.73;1.27;;;;;;;;;;5059500;28;20778;-78
2021/12/09 08:20:50;;;;;;;4.70;1.20;;;;;;;;;;5075904;28;20394;-77
2021/12/09 08:23:16;;;;;;;2.67;1.53;;;;;;;;;;5075567;28;20457;-79
2021/12/09 08:25:43;;;;;;;3.40;1.40;;;;;;;;;;5057623;28;20411;-78
2021/12/09 08:28:09;;;;;;;2.90;1.20;;;;;;;;;;5057545;28;20410;-78
2021/12/09 08:30:36;;;;;;;5.13;1.90;;;;;;;;;;5074936;28;20410;-78
2021/12/09 08:33:05;;;;;;;4.97;1.53;;;;;;;;;;5079727;28;20410;-78
2021/12/09 08:35:31;;;;;;;4.13;1.53;;;;;;;;;;5065787;28;20422;-78
2021/12/09 08:37:58;;;;;;;5.20;1.70;;;;;;;;;;5062814;28;20478;-78
2021/12/09 08:40:25;;;;;;;5.33;1.90;;;;;;;;;;5074539;28;20419;-77
2021/12/09 08:42:51;;;;;;;2.77;1.27;;;;;;;;;;5058600;28;20410;-78
2021/12/09 08:45:18;;;;;;;4.47;1.60;;;;;;;;;;5077024;28;20407;-78
2021/12/09 08:47:44;;;;;;;1.77;1.20;;;;;;;;;;5057419;28;20426;-79
2021/12/09 08:50:12;;;;;;;2.33;1.27;;;;;;;;;;5074041;28;20472;-77
2021/12/09 08:52:38;;;;;;;12.73;1.40;;;;;;;;;;5056179;28;20825;-77
2021/12/09 08:55:04;;;;;;;1.70;1.10;;;;;;;;;;5074136;28;20894;-77
2021/12/09 08:57:36;;;;;;;2.67;1.07;;;;;;;;;;5073816;28;20450;-77
2021/12/09 09:00:03;;;;;;;2.50;1.20;;;;;;;;;;5055752;28;20423;-79
2021/12/09 09:02:29;;;;;;;1.60;1.00;;;;;;;;;;5074373;28;20403;-78
2021/12/09 09:04:57;;;;;;;2.37;1.10;;;;;;;;;;5057921;28;20770;-78
2021/12/09 09:07:23;;;;;;;2.53;1.20;;;;;;;;;;5075164;28;20498;-78
2021/12/09 09:09:49;;;;;;;5.20;1.00;;;;;;;;;;5073661;28;20499;-78
2021/12/09 09:12:16;;;;;;;7.23;1.17;;;;;;;;;;5075822;28;20411;-78
2021/12/09 09:14:42;;;;;;;3.17;1.00;;;;;;;;;;5057740;28;20763;-79
2021/12/09 09:17:09;;;;;;;2.40;0.93;;;;;;;;;;5058049;28;20549;-78
2021/12/09 09:19:35;;;;;;;2.57;1.23;;;;;;;;;;5075347;28;20437;-78
2021/12/09 09:22:01;;;;;;;2.33;1.17;;;;;;;;;;5057418;28;20906;-78
2021/12/09 09:24:28;;;;;;;1.37;0.87;;;;;;;;;;5075225;28;20403;-78
2021/12/09 09:26:54;;;;;;;3.80;0.90;;;;;;;;;;5073990;28;20912;-78
2021/12/09 09:29:20;;;;;;;3.83;1.23;;;;;;;;;;5074218;28;20426;-79
2021/12/09 09:31:46;;;;;;;1.30;0.90;;;;;;;;;;5074503;28;20407;-79
2021/12/09 09:34:13;;;;;;;1.70;0.80;;;;;;;;;;5075898;28;20406;-79
2021/12/09 09:36:44;;;;;;;1.37;0.80;;;;;;;;;;5074319;28;20511;-79
2021/12/09 09:39:17;;;;;;;1.90;1.10;;;;;;;;;;5073686;28;20428;-79
2021/12/09 09:41:54;;;;;;;1.30;0.70;;;;;;;;;;5073702;28;20456;-79
2021/12/09 09:44:27;;;;;;;2.70;1.13;;;;;;;;;;5075464;28;20921;-79
2021/12/09 09:46:56;;;;;;;1.50;0.87;;;;;;;;;;5057634;28;20464;-79
2021/12/09 09:49:22;;;;;;;2.40;1.00;;;;;;;;;;5056724;28;20442;-79
2021/12/09 09:51:48;;;;;;;1.70;0.70;;;;;;;;;;5056498;28;20476;-79
2021/12/09 09:54:14;;;;;;;1.30;0.70;;;;;;;;;;5055222;28;20422;-79
2021/12/09 09:56:42;;;;;;;1.57;0.90;;;;;;;;;;5055314;28;20465;-79
2021/12/09 09:59:09;;;;;;;1.10;0.70;;;;;;;;;;5073883;28;20419;-79
2021/12/09 10:01:37;;;;;;;1.80;1.00;;;;;;;;;;5075592;28;20394;-80
2021/12/09 10:04:13;;;;;;;1.67;0.87;;;;;;;;;;5078680;28;20398;-80
2021/12/09 10:06:41;;;;;;;2.13;0.83;;;;;;;;;;5078790;28;20987;-80
2021/12/09 10:09:08;;;;;;;1.97;0.90;;;;;;;;;;5077590;28;20451;-80
2021/12/09 10:11:35;;;;;;;1.80;1.07;;;;;;;;;;5078472;28;20399;-80
2021/12/09 10:14:18;;;;;;;1.73;0.90;;;;;;;;;;5079261;28;20770;-80
2021/12/09 10:16:45;;;;;;;1.30;0.70;;;;;;;;;;5078805;28;20457;-80
2021/12/09 10:19:22;;;;;;;1.30;0.80;;;;;;;;;;5077580;28;20513;-80
2021/12/09 10:21:48;;;;;;;1.57;0.73;;;;;;;;;;5079208;28;20481;-80
2021/12/09 10:24:16;;;;;;;1.90;0.70;;;;;;;;;;5060174;28;20414;-80
2021/12/09 10:26:43;;;;;;;4.03;0.80;;;;;;;;;;5078591;28;20413;-79
2021/12/09 10:29:26;;;;;;;1.20;0.70;;;;;;;;;;5078178;28;20429;-80
2021/12/09 10:31:59;;;;;;;1.60;1.00;;;;;;;;;;5062077;28;20430;-80
2021/12/09 10:34:36;;;;;;;1.00;0.70;;;;;;;;;;5059811;28;20496;-78
2021/12/09 10:37:16;;;;;;;1.60;0.90;;;;;;;;;;5058931;28;20996;-78
2021/12/09 10:39:46;;;;;;;1.07;0.67;;;;;;;;;;5077422;28;20776;-79
2021/12/09 10:42:26;;;;;;;2.67;0.90;;;;;;;;;;5075607;28;20409;-79
2021/12/09 10:44:54;;;;;;;2.30;1.07;;;;;;;;;;5073576;28;20493;-79
2021/12/09 10:47:33;;;;;;;7.23;0.90;;;;;;;;;;5059555;28;20438;-79
2021/12/09 10:50:09;;;;;;;3.00;1.00;;;;;;;;;;5083004;28;20521;-80
2021/12/09 10:52:49;;;;;;;10.63;0.97;;;;;;;;;;5062860;28;20516;-80
2021/12/09 10:55:16;;;;;;;3.37;1.07;;;;;;;;;;5061458;28;20450;-79
2021/12/09 10:57:45;;;;;;;1.53;0.87;;;;;;;;;;5058361;28;20463;-79
2021/12/09 11:00:32;;;;;;;2.33;0.70;;;;;;;;;;5074296;28;20425;-78
2021/12/09 11:03:01;;;;;;;1.53;1.00;;;;;;;;;;5056807;28;20973;-78
2021/12/09 11:05:27;;;;;;;7.03;0.80;;;;;;;;;;5076467;28;20418;-78
2021/12/09 11:07:54;;;;;;;1.43;0.80;;;;;;;;;;5079103;28;20408;-79
2021/12/09 11:10:21;;;;;;;1.20;0.63;;;;;;;;;;5080955;28;20473;-82
2021/12/09 11:12:56;;;;;;;1.10;0.70;;;;;;;;;;5080945;28;20917;-80
2021/12/09 11:15:42;;;;;;;1.40;0.70;;;;;;;;;;5080965;28;20413;-80
2021/12/09 11:18:25;;;;;;;1.10;0.80;;;;;;;;;;5080967;28;20423;-79
2021/12/09 11:20:54;;;;;;;1.23;0.70;;;;;;;;;;5079969;28;20398;-80
2021/12/09 11:23:28;;;;;;;1.23;0.70;;;;;;;;;;5065512;28;20402;-82
2021/12/09 11:25:58;;;;;;;1.30;0.70;;;;;;;;;;5066698;28;20430;-81
2021/12/09 11:28:26;;;;;;;4.50;0.70;;;;;;;;;;5086179;28;20403;-81
2021/12/09 11:31:14;;;;;;;3.17;0.77;;;;;;;;;;5083324;28;20965;-80
2021/12/09 11:33:44;;;;;;;1.93;0.80;;;;;;;;;;5076494;28;20410;-81
2021/12/09 11:36:16;;;;;;;2.07;0.80;;;;;;;;;;5058794;28;20450;-81
2021/12/09 11:39:06;;;;;;;1.50;0.70;;;;;;;;;;5078505;28;20419;-82
2021/12/09 11:41:38;;;;;;;1.10;0.83;;;;;;;;;;5081411;28;20405;-81
2021/12/09 11:44:09;;;;;;;1.10;0.70;;;;;;;;;;5080149;28;20394;-82
2021/12/09 11:46:36;;;;;;;1.30;0.90;;;;;;;;;;5080196;28;20423;-81
2021/12/09 11:49:03;;;;;;;1.60;0.70;;;;;;;;;;5061732;28;20438;-81
2021/12/09 11:51:32;;;;;;;1.17;0.70;;;;;;;;;;5080298;28;20395;-81
2021/12/09 11:53:59;;;;;;;2.03;0.87;;;;;;;;;;5062063;28;20457;-81
2021/12/09 11:56:56;;;;;;;1.50;0.80;;;;;;;;;;5080627;28;20450;-81
2021/12/09 12:11:37;;;;;;;2.73;0.90;;;;;;;;;;5077626;28;20443;-81
2021/12/09 12:16:36;;;;;;;1.70;1.00;;;;;;;;;;5078428;28;20454;-83
2021/12/09 12:19:15;;;;;;;3.33;1.30;;;;;;;;;;5064634;28;20920;-83
2021/12/09 12:21:59;;;;;;;1.17;0.70;;;;;;;;;;5059333;28;20493;-83
2021/12/09 12:24:44;;;;;;;2.20;0.83;;;;;;;;;;5060304;28;20407;-81
2021/12/09 12:27:27;;;;;;;5.50;0.93;;;;;;;;;;5061600;28;20771;-82
2021/12/09 12:38:13;;;;;;;1.17;0.77;;;;;;;;;;5079620;28;20450;-82
2021/12/09 12:40:44;;;;;;;3.23;0.67;;;;;;;;;;5079245;28;20402;-82
2021/12/09 12:43:15;;;;;;;1.53;0.83;;;;;;;;;;5080081;28;20413;-82
2021/12/09 12:51:10;;;;;;;1.23;0.77;;;;;;;;;;5077305;28;20492;-80
2021/12/09 12:53:41;;;;;;;2.07;0.60;;;;;;;;;;5061143;28;20407;-80
2021/12/09 12:56:11;;;;;;;4.93;0.70;;;;;;;;;;5080184;28;20489;-81
2021/12/09 12:58:37;;;;;;;1.27;0.60;;;;;;;;;;5061815;28;20510;-79
2021/12/09 13:01:33;;;;;;;1.10;0.70;;;;;;;;;;5079257;28;20894;-79
2021/12/09 13:04:12;;;;;;;1.50;0.70;;;;;;;;;;5058719;28;20422;-82
2021/12/09 13:06:49;;;;;;;1.50;0.77;;;;;;;;;;5062697;28;20406;-81
2021/12/09 13:12:02;;;;;;;1.23;0.70;;;;;;;;;;5080222;28;20406;-80
2021/12/09 13:14:33;;;;;;;2.67;0.93;;;;;;;;;;5062346;28;20442;-80
2021/12/09 13:17:15;;;;;;;4.27;0.70;;;;;;;;;;5079083;28;20833;-80
2021/12/09 13:19:56;;;;;;;1.77;0.90;;;;;;;;;;5060773;28;20455;-81
2021/12/09 13:22:25;;;;;;;3.47;0.67;;;;;;;;;;5078687;28;20882;-79
2021/12/09 13:27:43;;;;;;;3.20;0.90;;;;;;;;;;5077559;28;20865;-80
2021/12/09 13:33:09;;;;;;;1.43;0.80;;;;;;;;;;5077820;28;20406;-81
2021/12/09 13:36:00;;;;;;;4.80;0.93;;;;;;;;;;5061417;28;20481;-82
2021/12/09 13:39:07;;;;;;;1.47;0.67;;;;;;;;;;5077832;28;20526;-81
2021/12/09 13:54:23;;;;;;;1.10;0.70;;;;;;;;;;5077428;28;20998;-82
2021/12/09 13:56:53;;;;;;;1.00;0.60;;;;;;;;;;5058414;28;20508;-81
2021/12/09 13:59:21;;;;;;;6.27;0.70;;;;;;;;;;5058329;28;20430;-79
2021/12/09 14:01:47;;;;;;;4.87;0.80;;;;;;;;;;5075476;28;20406;-79
2021/12/09 14:04:17;;;;;;;1.40;0.70;;;;;;;;;;5059803;28;20426;-79
2021/12/09 14:06:51;;;;;;;2.90;0.70;;;;;;;;;;5057257;28;20418;-79
2021/12/09 14:09:17;;;;;;;1.87;0.93;;;;;;;;;;5056885;28;20454;-79
2021/12/09 14:11:48;;;;;;;2.80;0.90;;;;;;;;;;5057857;28;20418;-80
2021/12/09 14:14:19;;;;;;;2.10;0.83;;;;;;;;;;5060541;28;20418;-79
2021/12/09 14:16:55;;;;;;;1.70;0.77;;;;;;;;;;5060030;28;20469;-80
2021/12/09 14:21:48;;;;;;;1.13;0.60;;;;;;;;;;5077304;28;20755;-79
2021/12/09 14:24:16;;;;;;;1.57;0.80;;;;;;;;;;5057158;28;20423;-80
2021/12/09 14:26:44;;;;;;;1.13;0.63;;;;;;;;;;5058176;28;20439;-79
2021/12/09 14:29:11;;;;;;;1.60;0.70;;;;;;;;;;5057591;28;20448;-80
2021/12/09 14:31:44;;;;;;;1.63;0.90;;;;;;;;;;5057322;28;20478;-80
2021/12/09 14:34:11;;;;;;;2.07;0.87;;;;;;;;;;5074877;28;20489;-80
2021/12/09 14:36:37;;;;;;;1.57;0.70;;;;;;;;;;5057339;28;20462;-81
2021/12/09 14:39:05;;;;;;;4.50;0.80;;;;;;;;;;5074411;28;20425;-80
2021/12/09 14:41:31;;;;;;;1.47;0.90;;;;;;;;;;5076731;28;20413;-80
2021/12/09 14:43:57;;;;;;;1.40;0.60;;;;;;;;;;5095983;28;20417;-81
2021/12/09 14:46:27;;;;;;;2.20;1.07;;;;;;;;;;5095840;28;20475;-79
2021/12/09 14:48:53;;;;;;;1.37;0.80;;;;;;;;;;5092340;28;20940;-81
2021/12/09 14:51:27;;;;;;;1.10;0.77;;;;;;;;;;5094437;28;20518;-79
2021/12/09 14:54:03;;;;;;;1.40;0.70;;;;;;;;;;5076914;28;20422;-86
2021/12/09 14:56:43;;;;;;;4.80;0.90;;;;;;;;;;5077819;28;20454;-85
2021/12/09 14:59:16;;;;;;;1.10;0.70;;;;;;;;;;5071433;28;20495;-84
2021/12/09 15:01:43;;;;;;;2.03;0.90;;;;;;;;;;5077537;28;20950;-85
2021/12/09 15:04:16;;;;;;;1.60;0.87;;;;;;;;;;5075959;28;20787;-84
2021/12/09 15:06:50;;;;;;;1.13;0.60;;;;;;;;;;5094859;28;20413;-83
2021/12/09 15:09:18;;;;;;;1.27;0.80;;;;;;;;;;5076613;28;20976;-82
2021/12/09 15:11:52;;;;;;;1.30;0.77;;;;;;;;;;5092396;28;20535;-80
2021/12/09 15:14:22;;;;;;;1.20;0.80;;;;;;;;;;5092492;28;20793;-81
2021/12/09 15:17:03;;;;;;;1.40;0.80;;;;;;;;;;5074651;28;20453;-82
2021/12/09 15:19:29;;;;;;;1.00;0.60;;;;;;;;;;5068608;28;20797;-82
2021/12/09 15:22:10;;;;;;;2.17;0.80;;;;;;;;;;5072647;28;20770;-80
2021/12/09 15:24:36;;;;;;;1.43;0.97;;;;;;;;;;5087995;28;20469;-81
2021/12/09 15:27:02;;;;;;;1.70;1.07;;;;;;;;;;5093418;28;20501;-82
2021/12/09 15:29:29;;;;;;;2.33;0.90;;;;;;;;;;5075221;28;20434;-81
2021/12/09 15:31:58;;;;;;;1.77;0.77;;;;;;;;;;5074967;28;20548;-81
2021/12/09 15:34:26;;;;;;;1.90;0.80;;;;;;;;;;5074952;28;20414;-81
2021/12/09 15:37:01;;;;;;;1.70;0.97;;;;;;;;;;5073830;28;20486;-81
2021/12/09 15:39:29;;;;;;;1.13;0.77;;;;;;;;;;5071477;28;20444;-79
2021/12/09 15:42:07;;;;;;;2.03;0.93;;;;;;;;;;5072969;28;20425;-79
2021/12/09 15:44:35;;;;;;;2.47;1.00;;;;;;;;;;5075017;28;20410;-80
2021/12/09 15:47:19;;;;;;;1.00;0.67;;;;;;;;;;5073060;28;20429;-80
2021/12/09 15:50:08;;;;;;;1.30;0.70;;;;;;;;;;5092333;28;20652;-82
2021/12/09 15:52:36;;;;;;;1.50;0.70;;;;;;;;;;5069923;28;20462;-81